Time;durP1;ratioP1;P1;durP2;ratioP2;P2;SDS_P1;SDS_P2;PMS_P1;PMS_P2;Temp;Humidity;BMP_temperature;BMP_pressure;BME280_temperature;BME280_humidity;BME280_pressure;Samples;Min_cycle;Max_cycle;Signal;HPM_P1;HPM_P2
2023/05/13 00:01:57;;;;;;;3.78;1.80;;;;;;;;;;5096750;28;20422;-62
2023/05/13 00:04:23;;;;;;;3.97;2.10;;;;;;;;;;5096894;28;20723;-59
2023/05/13 00:06:48;;;;;;;4.22;1.90;;;;;;;;;;5089116;28;20046;-63
2023/05/13 00:09:16;;;;;;;5.23;2.07;;;;;;;;;;5093229;28;20023;-63
2023/05/13 00:11:43;;;;;;;4.38;2.15;;;;;;;;;;5093557;28;21025;-60
2023/05/13 00:14:14;;;;;;;4.25;1.90;;;;;;;;;;5090932;28;20062;-60
2023/05/13 00:16:42;;;;;;;4.45;2.15;;;;;;;;;;5094714;28;20020;-61
2023/05/13 00:19:07;;;;;;;5.00;2.33;;;;;;;;;;5094320;28;20015;-60
2023/05/13 00:21:37;;;;;;;4.13;1.95;;;;;;;;;;5094894;28;20375;-63
2023/05/13 00:24:05;;;;;;;4.03;1.58;;;;;;;;;;5091593;28;20019;-62
2023/05/13 00:26:33;;;;;;;5.05;1.60;;;;;;;;;;5094107;28;20020;-61
2023/05/13 00:29:04;;;;;;;3.97;1.60;;;;;;;;;;5085293;28;20058;-62
2023/05/13 00:31:31;;;;;;;4.78;1.80;;;;;;;;;;5088693;28;20028;-60
2023/05/13 00:33:57;;;;;;;3.75;1.77;;;;;;;;;;5093542;28;20077;-60
2023/05/13 00:36:26;;;;;;;3.63;1.65;;;;;;;;;;5087412;28;20016;-61
2023/05/13 00:38:52;;;;;;;3.70;1.52;;;;;;;;;;5097865;27;20035;-63
2023/05/13 00:41:20;;;;;;;4.57;1.52;;;;;;;;;;5093506;27;20111;-64
2023/05/13 00:43:48;;;;;;;4.68;1.50;;;;;;;;;;5096453;27;20447;-60
2023/05/13 00:46:19;;;;;;;3.40;1.40;;;;;;;;;;5097061;28;20058;-59
2023/05/13 00:48:44;;;;;;;5.05;1.83;;;;;;;;;;5107702;27;20035;-62
2023/05/13 00:51:15;;;;;;;5.30;1.70;;;;;;;;;;5096580;27;20023;-63
2023/05/13 00:53:50;;;;;;;5.30;1.50;;;;;;;;;;5093625;27;20732;-59
2023/05/13 00:56:23;;;;;;;3.53;1.25;;;;;;;;;;5093224;28;20030;-60
2023/05/13 00:58:52;;;;;;;5.43;1.58;;;;;;;;;;5095804;27;20079;-59
2023/05/13 01:01:30;;;;;;;4.68;1.73;;;;;;;;;;5100621;27;20019;-64
2023/05/13 01:04:14;;;;;;;4.03;1.60;;;;;;;;;;5093084;27;20019;-63
2023/05/13 01:07:03;;;;;;;4.55;1.50;;;;;;;;;;5091215;28;20020;-65
2023/05/13 01:09:55;;;;;;;4.40;1.30;;;;;;;;;;5095089;28;20050;-61
2023/05/13 01:12:27;;;;;;;4.45;1.83;;;;;;;;;;5094063;27;20073;-62
2023/05/13 01:15:03;;;;;;;4.43;1.75;;;;;;;;;;5096261;28;20020;-64
2023/05/13 01:17:45;;;;;;;5.43;1.70;;;;;;;;;;5102632;27;20618;-62
2023/05/13 01:20:10;;;;;;;4.13;1.50;;;;;;;;;;5100017;27;20547;-61
2023/05/13 01:22:39;;;;;;;3.92;1.75;;;;;;;;;;5092648;27;20127;-61
2023/05/13 01:25:04;;;;;;;3.47;1.50;;;;;;;;;;5098601;28;20046;-60
2023/05/13 01:27:30;;;;;;;4.30;1.70;;;;;;;;;;5093299;27;20019;-61
2023/05/13 01:29:55;;;;;;;4.60;1.57;;;;;;;;;;5094119;27;20016;-62
2023/05/13 01:32:27;;;;;;;5.18;1.90;;;;;;;;;;5090375;27;21395;-60
2023/05/13 01:35:10;;;;;;;4.05;1.70;;;;;;;;;;5095368;28;21139;-64
2023/05/13 01:37:46;;;;;;;5.78;1.80;;;;;;;;;;5096526;28;20043;-61
2023/05/13 01:40:18;;;;;;;4.38;1.52;;;;;;;;;;5093972;27;20043;-64
2023/05/13 01:42:43;;;;;;;4.38;1.50;;;;;;;;;;5096971;28;20096;-60
2023/05/13 01:45:11;;;;;;;3.88;1.45;;;;;;;;;;5091188;28;20031;-61
2023/05/13 01:47:36;;;;;;;4.88;1.63;;;;;;;;;;5090023;27;20358;-60
2023/05/13 01:50:14;;;;;;;3.63;1.33;;;;;;;;;;5093178;27;20011;-63
2023/05/13 01:52:41;;;;;;;3.47;1.40;;;;;;;;;;5096474;27;20052;-62
2023/05/13 01:55:09;;;;;;;4.30;1.73;;;;;;;;;;5093931;27;20075;-62
2023/05/13 01:57:39;;;;;;;4.53;1.40;;;;;;;;;;5090625;27;20231;-60
2023/05/13 02:00:10;;;;;;;3.75;1.58;;;;;;;;;;5094232;27;20020;-62
2023/05/13 02:02:35;;;;;;;3.78;1.60;;;;;;;;;;5095085;28;20030;-62
2023/05/13 02:05:01;;;;;;;4.47;1.70;;;;;;;;;;5093328;28;20020;-62
2023/05/13 02:07:28;;;;;;;4.22;1.75;;;;;;;;;;5095000;28;20252;-63
2023/05/13 02:09:58;;;;;;;4.32;1.60;;;;;;;;;;5097414;27;20028;-64
2023/05/13 02:12:26;;;;;;;5.57;1.80;;;;;;;;;;5100526;28;20080;-61
2023/05/13 02:14:55;;;;;;;4.32;1.75;;;;;;;;;;5093552;28;20032;-59
2023/05/13 02:17:21;;;;;;;5.32;1.60;;;;;;;;;;5094463;27;20079;-62
2023/05/13 02:19:46;;;;;;;5.07;1.30;;;;;;;;;;5094890;27;20016;-61
2023/05/13 02:22:12;;;;;;;8.30;1.73;;;;;;;;;;5096097;28;20030;-59
2023/05/13 02:24:43;;;;;;;5.53;1.80;;;;;;;;;;5094593;27;20535;-60
2023/05/13 02:27:15;;;;;;;3.72;1.50;;;;;;;;;;5093035;27;20413;-59
2023/05/13 02:29:45;;;;;;;3.40;1.35;;;;;;;;;;5097338;28;20030;-61
2023/05/13 02:32:13;;;;;;;3.60;1.23;;;;;;;;;;5097700;27;20027;-59
2023/05/13 02:34:38;;;;;;;3.90;1.40;;;;;;;;;;5096518;27;20538;-62
2023/05/13 02:37:06;;;;;;;4.63;1.77;;;;;;;;;;5091848;27;20024;-61
2023/05/13 02:39:34;;;;;;;4.82;1.80;;;;;;;;;;5105891;27;20019;-65
2023/05/13 02:42:01;;;;;;;4.35;1.95;;;;;;;;;;5085747;28;20229;-64
2023/05/13 02:44:27;;;;;;;4.78;2.00;;;;;;;;;;5090563;27;20107;-60
2023/05/13 02:46:52;;;;;;;4.70;2.30;;;;;;;;;;5089447;28;20458;-61
2023/05/13 02:49:26;;;;;;;5.13;2.17;;;;;;;;;;5090629;28;20050;-61
2023/05/13 02:51:51;;;;;;;7.13;2.40;;;;;;;;;;5094111;28;20352;-61
2023/05/13 02:54:19;;;;;;;4.72;2.00;;;;;;;;;;5092691;28;21214;-61
2023/05/13 02:56:44;;;;;;;4.43;2.10;;;;;;;;;;5100100;27;20012;-61
2023/05/13 02:59:12;;;;;;;5.30;2.03;;;;;;;;;;5096653;27;20021;-60
2023/05/13 03:01:43;;;;;;;4.95;1.65;;;;;;;;;;5095385;27;20138;-62
2023/05/13 03:04:11;;;;;;;3.85;1.42;;;;;;;;;;5090001;28;20068;-62
2023/05/13 03:06:45;;;;;;;4.68;1.73;;;;;;;;;;5096956;28;20020;-62
2023/05/13 03:09:12;;;;;;;4.30;1.42;;;;;;;;;;5095583;28;20103;-61
2023/05/13 03:11:43;;;;;;;3.58;1.40;;;;;;;;;;5097403;28;20027;-61
2023/05/13 03:14:08;;;;;;;4.53;1.50;;;;;;;;;;5095002;27;20027;-60
2023/05/13 03:16:36;;;;;;;3.60;1.33;;;;;;;;;;5095107;28;20019;-60
2023/05/13 03:19:04;;;;;;;4.72;1.55;;;;;;;;;;5101973;27;20245;-60
2023/05/13 03:21:34;;;;;;;3.67;1.38;;;;;;;;;;5094312;28;20038;-63
2023/05/13 03:24:01;;;;;;;3.50;1.30;;;;;;;;;;5098725;27;20069;-60
2023/05/13 03:26:29;;;;;;;3.25;1.13;;;;;;;;;;5103643;27;20046;-61
2023/05/13 03:28:57;;;;;;;3.33;1.42;;;;;;;;;;5098968;28;20126;-61
2023/05/13 03:31:25;;;;;;;4.68;1.40;;;;;;;;;;5090566;27;20031;-60
2023/05/13 03:33:54;;;;;;;2.85;0.93;;;;;;;;;;5099443;28;20027;-59
2023/05/13 03:36:24;;;;;;;3.33;0.90;;;;;;;;;;5095697;28;20040;-60
2023/05/13 03:38:50;;;;;;;3.42;1.25;;;;;;;;;;5096406;27;20055;-62
2023/05/13 03:41:17;;;;;;;3.60;1.00;;;;;;;;;;5108532;27;20829;-63
2023/05/13 03:43:43;;;;;;;2.28;0.82;;;;;;;;;;5095657;28;20061;-60
2023/05/13 03:46:11;;;;;;;2.40;1.00;;;;;;;;;;5102016;28;20135;-61
2023/05/13 03:48:39;;;;;;;2.85;0.90;;;;;;;;;;5092994;28;20089;-60
2023/05/13 03:51:07;;;;;;;3.33;1.00;;;;;;;;;;5100667;28;20027;-64
2023/05/13 03:53:41;;;;;;;3.50;0.90;;;;;;;;;;5094921;28;20047;-60
2023/05/13 03:56:06;;;;;;;2.38;0.98;;;;;;;;;;5096814;28;20035;-60
2023/05/13 03:58:32;;;;;;;3.22;0.98;;;;;;;;;;5099329;28;20732;-61
2023/05/13 04:00:59;;;;;;;1.98;0.85;;;;;;;;;;5094756;28;20096;-60
2023/05/13 04:03:25;;;;;;;2.83;0.90;;;;;;;;;;5097784;28;20020;-61
2023/05/13 04:05:52;;;;;;;3.37;1.00;;;;;;;;;;5092702;28;20057;-61
2023/05/13 04:08:18;;;;;;;2.85;1.00;;;;;;;;;;5098544;28;20764;-63
2023/05/13 04:10:48;;;;;;;3.20;1.02;;;;;;;;;;5093535;28;20076;-59
2023/05/13 04:13:13;;;;;;;2.42;0.90;;;;;;;;;;5097402;28;20374;-60
2023/05/13 04:15:46;;;;;;;4.30;0.90;;;;;;;;;;5102538;27;20028;-60
2023/05/13 04:18:17;;;;;;;3.70;1.20;;;;;;;;;;5099505;27;20390;-60
2023/05/13 04:20:42;;;;;;;2.83;0.98;;;;;;;;;;5103670;27;20023;-59
2023/05/13 04:23:07;;;;;;;2.70;1.00;;;;;;;;;;5094406;28;20090;-60
2023/05/13 04:25:36;;;;;;;2.78;0.95;;;;;;;;;;5101117;28;20269;-59
2023/05/13 04:28:06;;;;;;;3.33;1.10;;;;;;;;;;5094592;27;20027;-60
2023/05/13 04:30:37;;;;;;;3.58;1.20;;;;;;;;;;5099834;28;20042;-62
2023/05/13 04:33:05;;;;;;;3.55;0.98;;;;;;;;;;5097836;28;20039;-60
2023/05/13 04:35:31;;;;;;;4.80;1.20;;;;;;;;;;5101946;27;20020;-61
2023/05/13 04:38:08;;;;;;;2.60;1.02;;;;;;;;;;5098541;27;20016;-60
2023/05/13 04:40:33;;;;;;;3.17;1.17;;;;;;;;;;5097586;28;20016;-61
2023/05/13 04:42:58;;;;;;;3.42;1.23;;;;;;;;;;5099600;28;20044;-61
2023/05/13 04:45:29;;;;;;;4.37;1.30;;;;;;;;;;5091852;28;20112;-60
2023/05/13 04:48:04;;;;;;;3.35;1.20;;;;;;;;;;5101636;27;20268;-60
2023/05/13 04:50:30;;;;;;;3.47;1.05;;;;;;;;;;5096190;28;20441;-61
2023/05/13 04:52:56;;;;;;;2.88;0.90;;;;;;;;;;5100059;27;20147;-60
2023/05/13 04:55:24;;;;;;;5.03;1.40;;;;;;;;;;5094150;27;20019;-60
2023/05/13 04:57:49;;;;;;;5.07;1.20;;;;;;;;;;5100484;27;20077;-62
2023/05/13 05:00:18;;;;;;;4.13;1.10;;;;;;;;;;5097532;27;20019;-61
2023/05/13 05:02:43;;;;;;;2.63;0.85;;;;;;;;;;5095996;28;20312;-59
2023/05/13 05:05:11;;;;;;;2.38;0.90;;;;;;;;;;5100087;27;20077;-61
2023/05/13 05:07:42;;;;;;;3.45;1.10;;;;;;;;;;5098429;28;20023;-59
2023/05/13 05:10:08;;;;;;;3.60;1.20;;;;;;;;;;5109161;27;20076;-60
2023/05/13 05:12:37;;;;;;;2.33;1.00;;;;;;;;;;5100158;27;20106;-59
2023/05/13 05:15:04;;;;;;;4.00;1.42;;;;;;;;;;5096161;28;20043;-60
2023/05/13 05:17:34;;;;;;;2.88;1.00;;;;;;;;;;5099972;27;20016;-63
2023/05/13 05:19:59;;;;;;;4.85;1.20;;;;;;;;;;5094631;28;20085;-60
2023/05/13 05:22:27;;;;;;;3.45;1.48;;;;;;;;;;5097660;27;20020;-60
2023/05/13 05:24:55;;;;;;;3.33;1.25;;;;;;;;;;5098955;27;20062;-63
2023/05/13 05:27:25;;;;;;;4.25;1.40;;;;;;;;;;5095497;27;20970;-61
2023/05/13 05:29:53;;;;;;;3.25;1.20;;;;;;;;;;5100603;28;20048;-59
2023/05/13 05:32:22;;;;;;;6.07;1.60;;;;;;;;;;5094477;27;20016;-60
2023/05/13 05:34:47;;;;;;;11.55;2.15;;;;;;;;;;5101003;27;20058;-60
2023/05/13 05:37:12;;;;;;;5.15;1.50;;;;;;;;;;5095012;28;20153;-61
2023/05/13 05:39:39;;;;;;;5.85;1.50;;;;;;;;;;5098182;28;20035;-59
2023/05/13 05:42:05;;;;;;;3.65;1.30;;;;;;;;;;5100059;27;20047;-60
2023/05/13 05:44:30;;;;;;;4.03;1.27;;;;;;;;;;5105889;27;20517;-63
2023/05/13 05:46:59;;;;;;;3.30;1.23;;;;;;;;;;5098706;28;20040;-62
2023/05/13 05:49:24;;;;;;;5.10;1.23;;;;;;;;;;5094765;27;20024;-60
2023/05/13 05:51:49;;;;;;;2.92;0.93;;;;;;;;;;5101188;27;20027;-59
2023/05/13 05:54:18;;;;;;;2.72;1.00;;;;;;;;;;5096145;28;20043;-60
2023/05/13 05:56:43;;;;;;;3.53;0.98;;;;;;;;;;5090530;27;20055;-61
2023/05/13 05:59:17;;;;;;;2.90;1.00;;;;;;;;;;5083448;28;20135;-60
2023/05/13 06:01:45;;;;;;;3.17;1.10;;;;;;;;;;5085026;28;20285;-60
2023/05/13 06:04:10;;;;;;;3.40;1.13;;;;;;;;;;5099597;27;20785;-61
2023/05/13 06:06:39;;;;;;;3.47;1.20;;;;;;;;;;5088813;27;20035;-60
2023/05/13 06:09:04;;;;;;;5.55;1.27;;;;;;;;;;5093633;27;20486;-59
2023/05/13 06:11:32;;;;;;;3.45;1.20;;;;;;;;;;5089936;28;20040;-60
2023/05/13 06:14:00;;;;;;;3.75;1.35;;;;;;;;;;5097429;27;20517;-62
2023/05/13 06:16:39;;;;;;;3.83;1.40;;;;;;;;;;5092089;28;20034;-60
2023/05/13 06:19:07;;;;;;;3.40;1.25;;;;;;;;;;5096454;28;20711;-59
2023/05/13 06:21:35;;;;;;;3.83;1.30;;;;;;;;;;5100188;27;20110;-59
2023/05/13 06:24:02;;;;;;;3.53;1.40;;;;;;;;;;5094192;28;20030;-60
2023/05/13 06:26:32;;;;;;;3.55;1.20;;;;;;;;;;5100175;28;20023;-60
2023/05/13 06:28:58;;;;;;;3.55;1.23;;;;;;;;;;5092160;27;20027;-61
2023/05/13 06:31:26;;;;;;;3.35;1.00;;;;;;;;;;5096231;27;20030;-60
2023/05/13 06:33:51;;;;;;;6.47;1.40;;;;;;;;;;5097861;28;20072;-65
2023/05/13 06:36:20;;;;;;;3.72;1.25;;;;;;;;;;5097861;27;20672;-61
2023/05/13 06:38:45;;;;;;;2.85;1.10;;;;;;;;;;5097679;28;20019;-60
2023/05/13 06:41:14;;;;;;;2.50;0.93;;;;;;;;;;5098869;27;20466;-61
2023/05/13 06:43:44;;;;;;;3.33;1.20;;;;;;;;;;5102368;28;20050;-60
2023/05/13 06:46:11;;;;;;;3.92;1.20;;;;;;;;;;5094813;28;20038;-63
2023/05/13 06:48:37;;;;;;;3.70;1.17;;;;;;;;;;5101286;27;20031;-59
2023/05/13 06:51:04;;;;;;;3.05;1.20;;;;;;;;;;5090611;28;20027;-59
2023/05/13 06:53:30;;;;;;;2.80;0.90;;;;;;;;;;5097427;28;20048;-62
2023/05/13 06:55:58;;;;;;;2.60;1.00;;;;;;;;;;5083648;28;20048;-62
2023/05/13 06:58:26;;;;;;;3.08;1.02;;;;;;;;;;5077905;27;21393;-61
2023/05/13 07:00:54;;;;;;;4.25;1.00;;;;;;;;;;5078765;28;22558;-60
2023/05/13 07:03:19;;;;;;;3.03;0.95;;;;;;;;;;5050441;28;20048;-61
2023/05/13 07:05:50;;;;;;;2.78;1.02;;;;;;;;;;5067504;28;20024;-62
2023/05/13 07:08:18;;;;;;;3.47;1.00;;;;;;;;;;5069962;28;20093;-63
2023/05/13 07:10:46;;;;;;;2.75;1.08;;;;;;;;;;5076019;28;20024;-59
2023/05/13 07:13:17;;;;;;;3.55;1.08;;;;;;;;;;5070015;28;20632;-64
2023/05/13 07:15:42;;;;;;;2.97;1.10;;;;;;;;;;5080629;28;20780;-59
2023/05/13 07:18:08;;;;;;;6.47;1.00;;;;;;;;;;5071648;28;20106;-60
2023/05/13 07:20:33;;;;;;;2.33;0.93;;;;;;;;;;5075468;28;20022;-63
2023/05/13 07:23:01;;;;;;;2.95;0.90;;;;;;;;;;5073032;28;20028;-60
2023/05/13 07:25:26;;;;;;;2.85;1.00;;;;;;;;;;5072197;28;20122;-59
2023/05/13 07:27:57;;;;;;;2.97;0.90;;;;;;;;;;5075112;28;20024;-59
2023/05/13 07:30:28;;;;;;;2.90;0.95;;;;;;;;;;5069833;28;20522;-63
2023/05/13 07:32:56;;;;;;;1.92;0.80;;;;;;;;;;5078734;28;20023;-64
2023/05/13 07:35:24;;;;;;;3.60;0.82;;;;;;;;;;5078548;28;20040;-59
2023/05/13 07:37:52;;;;;;;2.65;1.00;;;;;;;;;;5069562;28;20023;-63
2023/05/13 07:40:25;;;;;;;2.90;1.00;;;;;;;;;;5074449;28;20028;-62
2023/05/13 07:42:56;;;;;;;3.42;0.90;;;;;;;;;;5078999;28;20617;-61
2023/05/13 07:45:24;;;;;;;3.40;0.90;;;;;;;;;;5073031;28;20285;-60
2023/05/13 07:47:49;;;;;;;2.65;0.90;;;;;;;;;;5080565;28;20019;-61
2023/05/13 07:50:17;;;;;;;3.03;0.93;;;;;;;;;;5070647;28;20039;-60
2023/05/13 07:52:50;;;;;;;3.00;1.10;;;;;;;;;;5076561;28;20068;-60
2023/05/13 07:55:16;;;;;;;2.40;0.90;;;;;;;;;;5076779;28;20100;-61
2023/05/13 07:57:41;;;;;;;2.55;0.80;;;;;;;;;;5076363;28;20020;-61
2023/05/13 08:00:09;;;;;;;2.73;1.00;;;;;;;;;;5077225;28;20028;-62
2023/05/13 08:02:37;;;;;;;3.90;0.98;;;;;;;;;;5068981;28;20270;-59
2023/05/13 08:05:06;;;;;;;3.10;0.90;;;;;;;;;;5079617;28;20027;-61
2023/05/13 08:07:40;;;;;;;2.88;0.98;;;;;;;;;;5073886;28;20507;-60
2023/05/13 08:10:06;;;;;;;3.60;0.90;;;;;;;;;;5077692;28;20090;-60
2023/05/13 08:12:31;;;;;;;2.50;0.82;;;;;;;;;;5071593;28;20395;-60
2023/05/13 08:14:59;;;;;;;3.60;0.90;;;;;;;;;;5075060;28;20074;-64
2023/05/13 08:17:25;;;;;;;3.10;0.93;;;;;;;;;;5075338;28;20250;-61
2023/05/13 08:19:53;;;;;;;3.35;0.90;;;;;;;;;;5073640;28;20031;-61
2023/05/13 08:22:18;;;;;;;3.28;1.10;;;;;;;;;;5080557;28;20136;-59
2023/05/13 08:24:44;;;;;;;2.60;1.00;;;;;;;;;;5077899;28;20042;-58
2023/05/13 08:27:11;;;;;;;2.08;0.80;;;;;;;;;;5079550;28;20323;-59
2023/05/13 08:29:37;;;;;;;4.03;0.93;;;;;;;;;;5077018;28;20042;-60
2023/05/13 08:32:02;;;;;;;2.42;0.82;;;;;;;;;;5074848;28;20024;-61
2023/05/13 08:34:30;;;;;;;2.38;0.90;;;;;;;;;;5072309;28;20139;-61
2023/05/13 08:36:56;;;;;;;2.53;1.10;;;;;;;;;;5077956;28;20028;-66
2023/05/13 08:39:23;;;;;;;2.83;1.02;;;;;;;;;;5074878;28;20168;-60
2023/05/13 08:41:55;;;;;;;3.90;1.10;;;;;;;;;;5076942;28;20028;-65
2023/05/13 08:44:28;;;;;;;2.92;1.00;;;;;;;;;;5071326;28;20073;-62
2023/05/13 08:47:00;;;;;;;3.35;1.15;;;;;;;;;;5074775;28;20595;-59
2023/05/13 08:49:28;;;;;;;3.90;1.30;;;;;;;;;;5089962;28;20020;-61
2023/05/13 08:52:04;;;;;;;3.20;1.13;;;;;;;;;;5076458;28;20053;-59
2023/05/13 08:54:35;;;;;;;2.72;1.00;;;;;;;;;;5075202;28;20047;-60
2023/05/13 08:57:01;;;;;;;3.65;1.13;;;;;;;;;;5075207;28;20077;-59
2023/05/13 08:59:26;;;;;;;2.83;1.00;;;;;;;;;;5070067;28;20024;-61
2023/05/13 09:01:55;;;;;;;3.08;1.23;;;;;;;;;;5081019;28;20467;-61
2023/05/13 09:04:24;;;;;;;3.22;1.20;;;;;;;;;;5074382;28;20028;-60
2023/05/13 09:06:55;;;;;;;3.97;1.27;;;;;;;;;;5077143;28;20178;-62
2023/05/13 09:09:26;;;;;;;5.25;1.15;;;;;;;;;;5074998;28;20020;-60
2023/05/13 09:11:51;;;;;;;3.80;1.20;;;;;;;;;;5075079;28;20108;-60
2023/05/13 09:14:18;;;;;;;4.00;1.40;;;;;;;;;;5084042;28;20383;-66
2023/05/13 09:16:45;;;;;;;4.57;1.30;;;;;;;;;;5075485;28;20389;-62
2023/05/13 09:19:12;;;;;;;3.50;1.20;;;;;;;;;;5075672;28;20032;-61
2023/05/13 09:21:37;;;;;;;3.97;1.10;;;;;;;;;;5078397;28;20016;-62
2023/05/13 09:24:16;;;;;;;3.60;1.42;;;;;;;;;;5081887;28;20473;-60
2023/05/13 09:26:42;;;;;;;3.28;1.20;;;;;;;;;;5080441;28;20098;-63
2023/05/13 09:29:19;;;;;;;3.78;1.40;;;;;;;;;;5078205;28;20484;-61
2023/05/13 09:31:48;;;;;;;3.83;1.58;;;;;;;;;;5077637;28;20028;-62
2023/05/13 09:34:14;;;;;;;4.82;1.50;;;;;;;;;;5073308;28;20024;-62
2023/05/13 09:36:48;;;;;;;3.47;1.40;;;;;;;;;;5081631;28;20085;-59
2023/05/13 09:39:15;;;;;;;4.07;1.63;;;;;;;;;;5077052;28;20024;-60
2023/05/13 09:41:48;;;;;;;4.35;1.70;;;;;;;;;;5074679;28;20028;-58
2023/05/13 09:44:14;;;;;;;3.90;1.50;;;;;;;;;;5077271;28;20063;-61
2023/05/13 09:46:43;;;;;;;4.45;1.52;;;;;;;;;;5075774;28;20120;-63
2023/05/13 09:49:13;;;;;;;3.88;1.80;;;;;;;;;;5078027;28;20050;-59
2023/05/13 09:51:39;;;;;;;5.28;1.95;;;;;;;;;;5073442;28;20114;-61
2023/05/13 09:54:07;;;;;;;3.57;1.70;;;;;;;;;;5080016;28;20405;-60
2023/05/13 09:56:44;;;;;;;3.95;1.75;;;;;;;;;;5072932;28;20289;-60
2023/05/13 09:59:14;;;;;;;5.07;2.30;;;;;;;;;;5078038;28;20027;-63
2023/05/13 10:01:39;;;;;;;4.55;1.65;;;;;;;;;;5072038;28;20032;-61
2023/05/13 10:04:05;;;;;;;4.55;1.55;;;;;;;;;;5081384;28;20474;-61
2023/05/13 10:06:30;;;;;;;4.65;1.63;;;;;;;;;;5077842;28;20050;-60
2023/05/13 10:09:02;;;;;;;4.43;1.75;;;;;;;;;;5074283;28;20362;-60
2023/05/13 10:11:31;;;;;;;4.68;2.00;;;;;;;;;;5073493;28;20016;-61
2023/05/13 10:14:02;;;;;;;4.10;1.85;;;;;;;;;;5074057;28;20016;-58
2023/05/13 10:16:34;;;;;;;8.02;2.30;;;;;;;;;;5075770;28;20028;-59
2023/05/13 10:19:03;;;;;;;4.65;1.90;;;;;;;;;;5071471;28;20059;-64
2023/05/13 10:21:35;;;;;;;6.40;2.33;;;;;;;;;;5065234;28;20023;-62
2023/05/13 10:25:54;;;;;;;5.60;2.05;;;;;;;14.31;100.00;98501.53;5042964;28;20392;-62
2023/05/13 10:28:19;;;;;;;5.90;2.50;;;;;;;14.25;100.00;98497.81;5013897;28;20044;-59
2023/05/13 10:30:48;;;;;;;4.35;2.17;;;;;;;14.14;100.00;98503.41;5029976;28;20040;-60
2023/05/13 10:33:15;;;;;;;4.80;2.45;;;;;;;14.09;100.00;98496.09;5012974;28;20099;-59
2023/05/13 10:35:44;;;;;;;6.68;2.50;;;;;;;13.95;100.00;98491.56;5026604;28;20038;-60
2023/05/13 10:38:37;;;;;;;5.38;2.20;;;;;;;14.00;100.00;98495.31;5034283;28;20033;-61
2023/05/13 10:41:15;;;;;;;5.85;2.63;;;;;;;14.03;100.00;98496.75;5034986;28;20041;-59
2023/05/13 10:43:43;;;;;;;4.63;2.20;;;;;;;14.08;100.00;98489.22;5019501;28;20032;-60
2023/05/13 10:46:22;;;;;;;5.10;2.30;;;;;;;14.14;100.00;98490.34;5032228;28;20613;-59
2023/05/13 10:48:54;;;;;;;;;;;;;;;14.24;100.00;98485.72;5033853;28;20041;-59
2023/05/13 10:51:29;;;;;;;5.45;2.13;;;;;;;14.28;100.00;98480.97;5065207;28;19925;-63
2023/05/13 10:54:13;;;;;;;5.28;2.15;;;;;;;14.40;100.00;98483.03;5016878;28;20059;-63
2023/05/13 10:56:50;;;;;;;4.82;2.25;;;;;;;14.54;100.00;98478.03;5050634;28;20039;-60
2023/05/13 10:59:29;;;;;;;4.63;2.60;;;;;;;14.37;100.00;98435.47;5032579;28;20141;-60
2023/05/13 11:02:26;;;;;;;4.72;2.63;;;;;;;14.80;100.00;98473.31;5030302;28;20056;-62
2023/05/13 11:04:59;;;;;;;4.47;2.42;;;;;;;14.83;100.00;98455.63;5031068;28;20040;-60
2023/05/13 11:07:31;;;;;;;4.75;2.40;;;;;;;14.98;100.00;98477.41;5035899;28;20128;-58
2023/05/13 11:10:04;;;;;;;6.43;2.55;;;;;;;15.02;100.00;98462.16;5032881;28;20034;-60
2023/05/13 11:12:35;;;;;;;5.18;2.65;;;;;;;15.12;100.00;98473.22;5035104;28;20033;-61
2023/05/13 11:15:23;;;;;;;6.22;2.60;;;;;;;15.15;100.00;98468.44;5020225;28;20061;-59
2023/05/13 11:17:52;;;;;;;5.22;2.38;;;;;;;15.16;100.00;98470.06;5018456;28;20132;-60
2023/05/13 11:20:29;;;;;;;6.75;2.95;;;;;;;15.09;100.00;98466.50;5032491;28;20113;-60
2023/05/13 11:23:02;;;;;;;5.85;2.90;;;;;;;15.10;100.00;98469.97;5021302;28;20056;-64
2023/05/13 11:25:31;;;;;;;6.50;3.08;;;;;;;14.73;100.00;98421.81;5032551;28;20096;-59
2023/05/13 11:28:00;;;;;;;6.00;3.25;;;;;;;14.96;100.00;98467.13;5031560;28;20939;-60
2023/05/13 11:30:29;;;;;;;5.15;2.95;;;;;;;14.65;100.00;98469.81;5032449;28;20077;-63
2023/05/13 11:33:07;;;;;;;5.60;3.20;;;;;;;14.34;100.00;98426.16;5059653;28;20048;-61
2023/05/13 11:35:38;;;;;;;5.88;3.20;;;;;;;14.58;100.00;98459.25;5012365;28;20037;-59
2023/05/13 11:38:12;;;;;;;5.97;3.60;;;;;;;14.58;100.00;98463.63;5015023;28;20192;-63
2023/05/13 11:40:47;;;;;;;7.63;3.38;;;;;;;14.70;100.00;98440.50;5033237;28;20125;-60
2023/05/13 11:43:39;;;;;;;7.22;3.25;;;;;;;14.94;100.00;98455.22;5013183;28;20051;-60
2023/05/13 11:46:12;;;;;;;6.22;2.58;;;;;;;15.06;100.00;98435.47;5002818;28;20129;-60
2023/05/13 11:48:44;;;;;;;5.00;2.40;;;;;;;15.24;100.00;98442.16;4991304;28;20191;-59
2023/05/13 11:51:12;;;;;;;4.75;2.42;;;;;;;15.52;100.00;98445.00;4991233;28;20057;-61
2023/05/13 11:53:41;;;;;;;4.78;2.20;;;;;;;15.51;100.00;98443.38;5023008;28;20050;-59
2023/05/13 11:56:13;;;;;;;4.20;1.67;;;;;;;15.72;100.00;98437.41;4992734;28;20037;-59
2023/05/13 11:58:48;;;;;;;3.80;1.33;;;;;;;15.65;95.52;98433.88;4993609;28;20038;-60
2023/05/13 12:01:16;;;;;;;4.88;1.83;;;;;;;15.61;97.46;98430.00;5008851;28;20041;-60
2023/05/13 12:03:47;;;;;;;5.05;1.80;;;;;;;15.40;94.11;98426.28;4992567;28;20548;-60
2023/05/13 12:06:15;;;;;;;4.20;1.58;;;;;;;15.42;95.87;98415.63;4995372;28;20060;-59
2023/05/13 12:08:47;;;;;;;5.10;1.60;;;;;;;15.41;95.53;98422.69;5021484;28;20085;-61
2023/05/13 12:11:16;;;;;;;4.00;1.75;;;;;;;15.45;98.99;98425.75;5025653;28;20138;-60
2023/05/13 12:13:59;;;;;;;4.97;2.00;;;;;;;15.54;96.39;98411.56;4993344;28;20380;-60
2023/05/13 12:16:34;;;;;;;4.28;1.80;;;;;;;15.77;100.00;98422.00;4990356;28;20033;-58
2023/05/13 12:19:06;;;;;;;4.95;1.70;;;;;;;15.75;97.56;98416.09;4991882;28;20821;-58
2023/05/13 12:21:39;;;;;;;4.57;1.80;;;;;;;15.93;99.09;98411.28;4991976;28;20117;-58
2023/05/13 12:24:26;;;;;;;5.00;2.42;;;;;;;15.93;92.55;98413.09;5025807;28;20132;-58
2023/05/13 12:27:04;;;;;;;4.25;1.75;;;;;;;16.10;95.61;98400.59;4983933;28;20081;-58
2023/05/13 12:29:43;;;;;;;3.60;1.42;;;;;;;15.98;97.56;98396.81;4995043;28;20018;-59
2023/05/13 12:32:14;;;;;;;4.70;1.35;;;;;;;15.81;97.47;98404.91;4995867;28;20040;-60
2023/05/13 12:34:43;;;;;;;2.95;1.30;;;;;;;15.79;98.67;98406.88;5004185;28;20045;-60
2023/05/13 12:37:15;;;;;;;3.70;1.40;;;;;;;15.69;97.64;98404.50;4991712;28;20393;-58
2023/05/13 12:39:49;;;;;;;4.10;1.30;;;;;;;15.62;96.69;98403.59;4970912;28;20033;-59
2023/05/13 12:42:19;;;;;;;3.13;1.15;;;;;;;15.63;96.03;98402.63;5015415;28;20065;-60
2023/05/13 12:44:49;;;;;;;3.83;1.40;;;;;;;15.69;92.64;98395.84;4989935;28;20032;-59
2023/05/13 12:47:19;;;;;;;4.50;1.60;;;;;;;15.86;96.91;98386.81;5011817;28;20038;-60
2023/05/13 12:50:01;;;;;;;4.88;1.30;;;;;;;15.63;92.74;98344.97;4982091;28;20030;-61
2023/05/13 12:52:31;;;;;;;2.45;1.10;;;;;;;15.81;89.67;98393.56;4981311;28;20030;-60
2023/05/13 12:55:02;;;;;;;3.65;1.40;;;;;;;15.93;91.43;98387.69;4966692;28;20033;-61
2023/05/13 12:57:36;;;;;;;3.83;1.30;;;;;;;16.14;90.83;98394.78;4983476;28;20031;-60
2023/05/13 13:00:01;;;;;;;3.38;1.35;;;;;;;16.07;90.37;98385.22;5008881;28;20137;-60
2023/05/13 13:02:30;;;;;;;3.55;1.50;;;;;;;16.08;88.96;98384.19;4985121;28;20068;-60
2023/05/13 13:05:05;;;;;;;4.55;1.70;;;;;;;16.03;90.46;98371.66;4978950;28;20112;-60
2023/05/13 13:07:36;;;;;;;3.97;1.60;;;;;;;15.86;90.49;98375.50;4983102;28;20567;-59
2023/05/13 13:10:05;;;;;;;4.32;1.42;;;;;;;15.43;94.64;98325.56;5015744;28;20060;-61
2023/05/13 13:12:36;;;;;;;4.00;1.60;;;;;;;15.53;92.60;98329.53;5013853;28;20872;-60
2023/05/13 13:15:07;;;;;;;4.30;1.50;;;;;;;15.84;94.78;98354.69;4970264;28;20039;-61
2023/05/13 13:17:41;;;;;;;3.97;1.60;;;;;;;16.13;94.34;98360.84;5007994;28;20046;-60
2023/05/13 13:20:09;;;;;;;4.50;1.45;;;;;;;16.22;90.11;98356.31;4967588;28;20153;-60
2023/05/13 13:22:41;;;;;;;3.63;1.57;;;;;;;16.13;90.06;98355.59;4987072;28;20572;-60
2023/05/13 13:25:09;;;;;;;3.80;1.50;;;;;;;16.04;91.29;98309.53;4994947;28;20300;-60
2023/05/13 13:27:38;;;;;;;4.43;1.70;;;;;;;16.40;89.40;98346.19;4981102;28;20137;-60
2023/05/13 13:30:16;;;;;;;4.05;1.60;;;;;;;16.67;92.39;98346.41;4985419;28;20435;-60
2023/05/13 13:32:47;;;;;;;4.15;1.55;;;;;;;16.24;87.72;98343.81;4980371;28;20040;-60
2023/05/13 13:35:15;;;;;;;4.70;1.70;;;;;;;16.01;90.15;98338.72;4985598;28;20423;-60
2023/05/13 13:37:40;;;;;;;5.28;1.70;;;;;;;16.12;90.73;98339.06;4982413;28;20506;-60
2023/05/13 13:40:06;;;;;;;4.13;1.60;;;;;;;15.99;88.07;98320.59;5010578;28;20022;-61
2023/05/13 13:42:37;;;;;;;4.68;1.70;;;;;;;16.11;92.63;98318.28;4984012;28;20425;-61
2023/05/13 13:45:05;;;;;;;4.22;1.58;;;;;;;16.26;90.20;98320.81;4966332;28;20026;-61
2023/05/13 13:47:33;;;;;;;4.45;1.52;;;;;;;16.52;88.90;98328.94;4988257;28;20037;-61
2023/05/13 13:50:01;;;;;;;4.05;1.40;;;;;;;16.90;90.12;98312.88;4992476;28;20169;-60
2023/05/13 13:52:29;;;;;;;4.20;1.40;;;;;;;16.90;87.92;98291.03;5012712;28;20037;-60
2023/05/13 13:54:55;;;;;;;3.83;1.30;;;;;;;16.87;80.81;98302.75;4977738;28;20026;-61
2023/05/13 13:57:23;;;;;;;4.93;1.38;;;;;;;17.14;85.73;98299.47;5007384;28;20038;-59
2023/05/13 13:59:54;;;;;;;4.65;1.27;;;;;;;16.93;82.75;98253.91;4977219;28;20267;-59